Time;durP1;ratioP1;P1;durP2;ratioP2;P2;SDS_P1;SDS_P2;PMS_P1;PMS_P2;Temp;Humidity;BMP_temperature;BMP_pressure;BME280_temperature;BME280_humidity;BME280_pressure;Samples;Min_cycle;Max_cycle;Signal;HPM_P1;HPM_P2
2023/06/19 00:00:02;;;;;;;12.30;11.53;;;18.10;66.90;;;;;;6276605;28;20234;-79
2023/06/19 00:03:06;;;;;;;12.90;12.07;;;18.10;67.10;;;;;;6262940;28;20317;-79
2023/06/19 00:06:09;;;;;;;12.20;11.40;;;18.10;67.30;;;;;;6269387;28;20238;-78
2023/06/19 00:09:14;;;;;;;13.37;12.57;;;18.10;67.30;;;;;;6288351;28;20245;-79
2023/06/19 00:12:17;;;;;;;13.33;12.33;;;18.10;67.50;;;;;;6253139;28;20274;-79
2023/06/19 00:15:20;;;;;;;11.87;11.07;;;18.10;67.60;;;;;;6259486;28;20389;-78
2023/06/19 00:18:23;;;;;;;13.43;12.53;;;18.10;67.60;;;;;;6272584;28;20230;-79
2023/06/19 00:21:27;;;;;;;12.73;11.90;;;18.10;67.70;;;;;;6279300;28;20364;-79
2023/06/19 00:24:31;;;;;;;13.17;12.30;;;18.00;67.90;;;;;;6262301;28;20353;-78
2023/06/19 00:27:35;;;;;;;13.73;12.63;;;18.00;67.90;;;;;;6268419;28;20325;-78
2023/06/19 00:30:38;;;;;;;13.30;12.17;;;18.10;68.00;;;;;;6256037;28;20268;-81
2023/06/19 00:33:41;;;;;;;14.57;13.43;;;18.10;67.90;;;;;;6270188;28;20969;-80
2023/06/19 00:36:44;;;;;;;12.97;12.17;;;18.10;68.00;;;;;;6269490;28;20623;-78
2023/06/19 00:39:49;;;;;;;13.30;12.47;;;18.10;68.00;;;;;;6267699;28;20812;-79
2023/06/19 00:42:52;;;;;;;13.40;12.50;;;18.10;68.00;;;;;;6266689;28;20358;-78
2023/06/19 00:45:57;;;;;;;12.63;11.93;;;18.20;67.90;;;;;;6273032;28;20280;-80
2023/06/19 00:49:00;;;;;;;13.40;12.60;;;18.20;67.90;;;;;;6267921;28;20234;-78
2023/06/19 00:52:04;;;;;;;14.37;13.47;;;18.20;67.90;;;;;;6259967;28;20313;-79
2023/06/19 00:55:10;;;;;;;14.03;13.13;;;18.20;68.00;;;;;;6277008;28;20775;-77
2023/06/19 00:58:13;;;;;;;14.70;13.70;;;18.20;68.00;;;;;;6260822;28;20298;-80
2023/06/19 01:01:16;;;;;;;15.37;14.33;;;18.20;68.10;;;;;;6266579;28;20261;-79
2023/06/19 01:04:19;;;;;;;14.03;13.13;;;18.20;68.20;;;;;;6266888;28;20594;-80
2023/06/19 01:07:32;;;;;;;13.20;12.40;;;18.20;68.20;;;;;;6258197;28;20244;-78
2023/06/19 01:10:40;;;;;;;14.70;13.73;;;18.20;68.20;;;;;;6268943;28;20650;-79
2023/06/19 01:13:48;;;;;;;12.93;12.13;;;18.20;68.00;;;;;;6278776;28;20826;-79
2023/06/19 01:16:52;;;;;;;14.03;13.13;;;18.20;68.00;;;;;;6271863;28;20246;-78
2023/06/19 01:19:56;;;;;;;13.53;12.63;;;18.20;68.00;;;;;;6280654;28;20234;-78
2023/06/19 01:23:07;;;;;;;14.50;13.50;;;18.20;68.00;;;;;;6273997;28;20238;-79
2023/06/19 01:26:11;;;;;;;12.93;12.13;;;18.10;68.10;;;;;;6286308;28;20611;-77
2023/06/19 01:29:17;;;;;;;12.87;12.07;;;18.10;68.20;;;;;;6283907;28;20306;-80
2023/06/19 01:32:27;;;;;;;14.57;13.63;;;18.10;68.20;;;;;;6274738;28;20723;-80
2023/06/19 01:35:36;;;;;;;12.80;11.97;;;18.00;68.30;;;;;;6274688;28;20233;-78
2023/06/19 01:38:41;;;;;;;14.10;13.03;;;18.00;68.30;;;;;;6280492;28;20364;-79
2023/06/19 01:41:46;;;;;;;13.03;12.07;;;18.00;68.40;;;;;;6280582;28;20225;-79
2023/06/19 01:44:50;;;;;;;14.97;13.87;;;18.00;68.50;;;;;;6276011;28;20278;-79
2023/06/19 01:47:54;;;;;;;17.70;16.10;;;18.00;68.50;;;;;;6269429;28;20290;-78
2023/06/19 01:50:57;;;;;;;13.60;12.77;;;18.00;68.50;;;;;;6284041;28;20944;-78
2023/06/19 01:54:03;;;;;;;14.80;13.67;;;18.00;68.50;;;;;;6271712;28;20326;-80
2023/06/19 01:57:06;;;;;;;14.17;13.17;;;18.00;68.60;;;;;;6282703;28;20305;-80
2023/06/19 02:00:10;;;;;;;14.03;12.97;;;18.00;68.70;;;;;;6272151;28;20225;-80
2023/06/19 02:03:13;;;;;;;16.13;14.93;;;18.00;68.80;;;;;;6270361;28;20722;-80
2023/06/19 02:06:16;;;;;;;15.53;14.33;;;18.00;69.00;;;;;;6275908;28;20253;-80
2023/06/19 02:09:21;;;;;;;14.33;13.33;;;18.00;68.90;;;;;;6283679;28;20708;-80
2023/06/19 02:12:24;;;;;;;14.00;13.03;;;18.00;68.80;;;;;;6280376;28;20245;-81
2023/06/19 02:15:27;;;;;;;14.07;13.17;;;18.00;68.70;;;;;;6280083;28;20237;-80
2023/06/19 02:18:31;;;;;;;13.07;12.30;;;18.00;68.60;;;;;;6288003;28;20324;-78
2023/06/19 02:21:34;;;;;;;15.97;14.87;;;18.00;68.60;;;;;;6259755;28;20726;-79
2023/06/19 02:24:39;;;;;;;15.73;14.73;;;18.00;68.70;;;;;;6278286;28;20230;-80
2023/06/19 02:27:42;;;;;;;16.60;15.33;;;18.00;68.70;;;;;;6287345;28;20237;-78
2023/06/19 02:30:45;;;;;;;14.07;13.17;;;18.00;68.70;;;;;;6276877;28;20314;-80
2023/06/19 02:33:48;;;;;;;14.87;13.77;;;18.00;68.70;;;;;;6278460;28;20660;-80
2023/06/19 02:36:52;;;;;;;17.17;15.90;;;18.00;68.70;;;;;;6274887;28;20252;-79
2023/06/19 02:39:57;;;;;;;13.90;12.97;;;18.00;68.70;;;;;;6274646;28;20271;-78
2023/06/19 02:43:00;;;;;;;13.83;12.83;;;17.90;68.80;;;;;;6269434;28;20245;-80
2023/06/19 02:46:03;;;;;;;15.33;13.93;;;18.00;68.90;;;;;;6281176;28;20953;-80
2023/06/19 02:49:07;;;;;;;16.57;15.43;;;18.00;68.90;;;;;;6274838;28;20234;-79
2023/06/19 02:52:09;;;;;;;18.33;16.53;;;18.00;68.80;;;;;;6266139;28;20241;-77
2023/06/19 02:55:14;;;;;;;16.20;15.00;;;17.90;68.70;;;;;;6263320;28;20710;-78
2023/06/19 02:58:17;;;;;;;15.53;14.30;;;17.90;69.00;;;;;;6254648;28;20253;-79
2023/06/19 03:01:20;;;;;;;16.10;14.73;;;18.00;68.90;;;;;;6266763;28;20244;-77
2023/06/19 03:04:23;;;;;;;16.07;14.83;;;17.90;68.90;;;;;;6273753;28;20238;-79
2023/06/19 03:07:30;;;;;;;15.43;14.43;;;17.90;68.90;;;;;;6268169;28;20649;-79
2023/06/19 03:10:35;;;;;;;15.63;14.53;;;17.80;68.90;;;;;;6262255;28;20242;-77
2023/06/19 03:13:46;;;;;;;16.30;15.20;;;17.80;69.00;;;;;;6273688;28;20237;-79
2023/06/19 03:16:49;;;;;;;16.67;15.40;;;17.80;69.00;;;;;;6286662;28;20287;-77
2023/06/19 03:19:52;;;;;;;14.90;13.93;;;17.80;69.10;;;;;;6268717;28;20308;-81
2023/06/19 03:22:56;;;;;;;15.17;14.17;;;17.80;68.90;;;;;;6271309;28;20237;-78
2023/06/19 03:26:00;;;;;;;18.17;16.97;;;17.80;68.80;;;;;;6269426;28;20248;-77
2023/06/19 03:29:03;;;;;;;16.13;15.03;;;17.80;69.00;;;;;;6260168;28;20234;-76
2023/06/19 03:32:07;;;;;;;16.83;15.73;;;17.80;69.00;;;;;;6260924;28;20238;-80
2023/06/19 03:35:10;;;;;;;15.40;14.27;;;17.90;68.90;;;;;;6262536;28;20252;-79
2023/06/19 03:38:13;;;;;;;16.17;15.07;;;18.00;68.90;;;;;;6264157;28;20710;-80
2023/06/19 03:41:18;;;;;;;16.77;15.57;;;18.00;68.80;;;;;;6261201;28;20276;-80
2023/06/19 03:44:21;;;;;;;14.53;13.57;;;18.00;68.60;;;;;;6261780;28;20863;-79
2023/06/19 03:47:24;;;;;;;15.07;14.07;;;18.10;68.40;;;;;;6271822;28;20238;-81
2023/06/19 03:50:27;;;;;;;18.40;16.87;;;18.20;68.40;;;;;;6267724;28;20310;-79
2023/06/19 03:53:30;;;;;;;16.83;15.63;;;18.20;68.20;;;;;;6276942;28;20229;-80
2023/06/19 03:56:35;;;;;;;18.60;17.07;;;18.20;68.20;;;;;;6264987;28;20330;-78
2023/06/19 03:59:38;;;;;;;16.23;15.07;;;18.30;67.60;;;;;;6263125;28;20230;-79
2023/06/19 04:02:41;;;;;;;15.67;14.63;;;18.30;67.60;;;;;;6262132;28;20229;-79
2023/06/19 04:05:44;;;;;;;15.20;14.13;;;18.40;67.50;;;;;;6271587;28;20240;-78
2023/06/19 04:08:47;;;;;;;15.33;14.33;;;18.40;67.40;;;;;;6261991;28;20221;-80
2023/06/19 04:11:54;;;;;;;16.33;14.93;;;18.40;67.50;;;;;;6261351;28;20732;-79
2023/06/19 04:14:57;;;;;;;15.70;14.33;;;18.40;67.30;;;;;;6270279;28;20320;-80
2023/06/19 04:18:01;;;;;;;15.80;14.80;;;18.50;67.20;;;;;;6267157;28;20230;-80
2023/06/19 04:21:04;;;;;;;14.50;13.50;;;18.50;67.10;;;;;;6257348;28;20692;-81
2023/06/19 04:24:08;;;;;;;15.97;14.93;;;18.50;67.00;;;;;;6263155;28;20342;-79
2023/06/19 04:27:13;;;;;;;16.00;14.93;;;18.60;66.80;;;;;;6265971;28;20238;-79
2023/06/19 04:30:16;;;;;;;15.47;14.40;;;18.70;66.70;;;;;;6264612;28;20288;-80
2023/06/19 04:33:21;;;;;;;14.80;13.90;;;18.70;66.70;;;;;;6259936;28;20836;-80
2023/06/19 04:36:24;;;;;;;16.67;15.37;;;18.70;66.60;;;;;;6261821;28;20234;-79
2023/06/19 04:39:27;;;;;;;17.23;15.80;;;18.80;66.60;;;;;;6276131;28;20241;-81
2023/06/19 04:42:32;;;;;;;17.60;16.40;;;18.80;66.60;;;;;;6263582;28;21177;-78
2023/06/19 04:45:35;;;;;;;18.03;16.63;;;18.80;66.50;;;;;;6257161;28;20303;-78
2023/06/19 04:48:39;;;;;;;18.00;16.80;;;18.80;66.30;;;;;;6268634;28;20240;-76
2023/06/19 04:51:42;;;;;;;18.40;16.90;;;18.80;66.20;;;;;;6270619;28;20268;-78
2023/06/19 04:54:48;;;;;;;16.83;15.73;;;18.80;66.20;;;;;;6270569;28;20226;-77
2023/06/19 04:57:52;;;;;;;15.23;14.30;;;18.80;66.20;;;;;;6262363;28;20775;-82
2023/06/19 05:00:55;;;;;;;16.47;15.37;;;18.90;66.20;;;;;;6278970;28;20328;-83
2023/06/19 05:03:59;;;;;;;15.17;14.07;;;18.90;66.20;;;;;;6269872;28;20234;-83
2023/06/19 05:07:02;;;;;;;17.90;16.60;;;18.90;66.20;;;;;;6268553;28;20277;-84
2023/06/19 05:10:06;;;;;;;18.73;17.33;;;18.90;66.00;;;;;;6265255;28;20307;-79
2023/06/19 05:13:10;;;;;;;14.20;13.33;;;18.90;66.20;;;;;;6274291;28;20609;-81
2023/06/19 05:16:16;;;;;;;13.80;12.90;;;18.90;66.20;;;;;;6260737;28;20246;-83
2023/06/19 05:19:19;;;;;;;14.70;13.70;;;19.00;66.20;;;;;;6260977;28;20307;-83
2023/06/19 05:22:23;;;;;;;16.90;15.43;;;19.00;66.20;;;;;;6263946;28;20729;-80
2023/06/19 05:25:27;;;;;;;16.03;14.80;;;19.00;66.20;;;;;;6252416;28;20235;-80
2023/06/19 05:28:32;;;;;;;14.97;13.90;;;19.00;66.40;;;;;;6271599;28;20234;-80
2023/06/19 05:31:35;;;;;;;15.17;14.17;;;19.10;66.20;;;;;;6274074;28;20245;-81
2023/06/19 05:34:38;;;;;;;18.80;17.50;;;19.10;66.20;;;;;;6266120;28;20236;-82
2023/06/19 05:37:43;;;;;;;18.30;16.90;;;19.20;65.70;;;;;;6275231;28;20264;-78
2023/06/19 05:40:46;;;;;;;16.97;15.77;;;19.30;65.60;;;;;;6272087;28;20300;-79
2023/06/19 05:43:50;;;;;;;18.13;16.43;;;19.40;65.70;;;;;;6272295;28;20899;-77
2023/06/19 05:46:54;;;;;;;17.60;16.20;;;19.40;65.70;;;;;;6276078;28;20649;-79
2023/06/19 05:49:57;;;;;;;16.83;15.63;;;19.40;65.80;;;;;;6266454;28;20743;-77
2023/06/19 05:53:00;;;;;;;16.50;15.30;;;19.50;65.80;;;;;;6265926;28;20299;-81
2023/06/19 05:56:05;;;;;;;20.27;18.67;;;19.50;65.80;;;;;;6277839;28;20227;-77
2023/06/19 05:59:10;;;;;;;16.57;15.47;;;19.50;65.60;;;;;;6272262;28;20236;-78
2023/06/19 06:02:13;;;;;;;17.67;16.37;;;19.60;65.60;;;;;;6279923;28;20226;-78
2023/06/19 06:05:17;;;;;;;17.67;16.23;;;19.70;65.50;;;;;;6257762;28;20235;-80
2023/06/19 06:08:20;;;;;;;18.00;16.57;;;19.80;65.30;;;;;;6288450;28;20296;-78
2023/06/19 06:11:23;;;;;;;20.10;18.60;;;19.90;65.10;;;;;;6260211;28;20246;-79
2023/06/19 06:14:28;;;;;;;17.37;16.17;;;19.90;64.60;;;;;;6279220;28;20967;-81
2023/06/19 06:17:31;;;;;;;17.53;16.03;;;20.00;64.80;;;;;;6264619;28;20241;-80
2023/06/19 06:20:34;;;;;;;17.00;15.67;;;20.10;64.70;;;;;;6258453;28;20237;-80
2023/06/19 06:23:37;;;;;;;16.23;15.13;;;20.10;64.70;;;;;;6259554;28;20259;-80
2023/06/19 06:26:40;;;;;;;18.23;16.83;;;20.30;64.40;;;;;;6268713;28;20242;-81
2023/06/19 06:29:45;;;;;;;19.47;17.87;;;20.30;64.20;;;;;;6279249;28;20238;-83
2023/06/19 06:32:48;;;;;;;19.40;18.00;;;20.30;64.10;;;;;;6269096;28;20303;-79
2023/06/19 06:35:52;;;;;;;16.60;15.57;;;20.30;63.60;;;;;;6291261;28;20237;-80
2023/06/19 06:38:55;;;;;;;19.63;17.93;;;20.30;63.90;;;;;;6289284;28;20225;-83
2023/06/19 06:41:58;;;;;;;19.60;18.00;;;20.30;64.00;;;;;;6287741;28;20678;-78
2023/06/19 06:45:02;;;;;;;17.10;15.60;;;20.50;64.00;;;;;;6303855;28;20395;-78
2023/06/19 06:48:06;;;;;;;17.30;16.10;;;20.50;63.90;;;;;;6301152;28;20245;-81
2023/06/19 06:51:10;;;;;;;18.37;16.77;;;20.50;63.90;;;;;;6308583;28;20277;-80
2023/06/19 06:54:13;;;;;;;18.73;17.33;;;20.70;63.90;;;;;;6317166;28;20212;-78
2023/06/19 06:57:16;;;;;;;19.47;17.90;;;20.80;63.70;;;;;;6296943;28;20226;-78
2023/06/19 07:00:22;;;;;;;18.97;17.63;;;20.80;63.50;;;;;;6295107;28;20237;-79
2023/06/19 07:03:26;;;;;;;20.30;18.73;;;20.90;63.30;;;;;;6311449;28;20233;-80
2023/06/19 07:06:29;;;;;;;18.40;17.00;;;21.00;63.40;;;;;;6302118;28;20236;-79
2023/06/19 07:09:32;;;;;;;20.00;18.40;;;21.10;63.20;;;;;;6294852;28;20222;-79
2023/06/19 07:12:36;;;;;;;18.53;17.00;;;21.20;62.90;;;;;;6299692;28;20237;-80
2023/06/19 07:15:40;;;;;;;17.90;16.33;;;21.30;62.80;;;;;;6300098;28;20256;-79
2023/06/19 07:18:44;;;;;;;18.33;16.90;;;21.40;63.10;;;;;;6297506;28;20214;-77
2023/06/19 07:21:47;;;;;;;18.63;17.23;;;21.50;63.00;;;;;;6304776;28;20225;-78
2023/06/19 07:24:50;;;;;;;18.03;16.57;;;21.70;62.30;;;;;;6292605;28;20282;-79
2023/06/19 07:27:53;;;;;;;20.47;18.60;;;21.70;62.10;;;;;;6317351;28;20301;-80
2023/06/19 07:30:57;;;;;;;17.83;16.33;;;21.80;62.20;;;;;;6295005;28;20225;-78
2023/06/19 07:34:00;;;;;;;16.53;15.33;;;21.90;62.10;;;;;;6297257;28;20210;-79
2023/06/19 07:37:04;;;;;;;18.60;17.20;;;22.10;62.00;;;;;;6281397;28;20307;-81
2023/06/19 07:40:08;;;;;;;18.90;17.63;;;22.20;62.00;;;;;;6262257;28;20842;-82
2023/06/19 07:43:11;;;;;;;19.10;17.53;;;22.30;61.20;;;;;;6282861;28;20238;-82
2023/06/19 07:46:16;;;;;;;18.87;17.57;;;22.30;61.00;;;;;;6275739;28;20241;-82
2023/06/19 07:49:20;;;;;;;18.70;17.27;;;22.50;61.60;;;;;;6270957;28;20230;-81
2023/06/19 07:52:23;;;;;;;17.57;16.33;;;22.60;60.80;;;;;;6270861;28;20438;-81
2023/06/19 07:55:27;;;;;;;17.63;16.23;;;22.80;60.00;;;;;;6276746;28;20254;-80
2023/06/19 07:58:31;;;;;;;18.30;16.77;;;22.90;60.00;;;;;;6271205;28;20283;-82
2023/06/19 08:01:37;;;;;;;18.03;16.27;;;23.00;60.00;;;;;;6269098;28;20233;-82
2023/06/19 08:04:40;;;;;;;16.07;15.07;;;23.10;60.00;;;;;;6265717;28;20319;-81
2023/06/19 08:07:43;;;;;;;18.20;16.80;;;23.20;59.40;;;;;;6274745;28;20247;-80
2023/06/19 08:10:46;;;;;;;16.77;15.33;;;23.20;59.30;;;;;;6280992;28;20241;-79
2023/06/19 08:13:49;;;;;;;18.47;17.07;;;23.30;58.70;;;;;;6280054;28;20291;-81
2023/06/19 08:16:53;;;;;;;17.57;16.07;;;23.40;58.60;;;;;;6278251;28;20764;-81
2023/06/19 08:19:57;;;;;;;18.27;16.83;;;23.40;58.20;;;;;;6264520;28;20272;-80
2023/06/19 08:23:00;;;;;;;16.60;15.27;;;23.40;57.90;;;;;;6274787;28;20311;-80
2023/06/19 08:26:03;;;;;;;15.40;14.50;;;23.50;57.90;;;;;;6271045;28;20317;-80
2023/06/19 08:29:06;;;;;;;17.00;15.80;;;23.60;58.70;;;;;;6283952;28;20260;-82
2023/06/19 08:32:10;;;;;;;16.90;15.47;;;23.80;57.70;;;;;;6275180;28;20241;-83
2023/06/19 08:35:13;;;;;;;16.60;15.50;;;23.80;57.40;;;;;;6277462;28;20741;-83
2023/06/19 08:38:17;;;;;;;16.30;15.30;;;23.70;57.30;;;;;;6281066;28;20291;-83
2023/06/19 08:41:20;;;;;;;15.70;14.70;;;23.60;57.30;;;;;;6286746;28;20319;-81
2023/06/19 08:44:23;;;;;;;17.83;16.53;;;23.70;57.60;;;;;;6291323;28;20237;-80
2023/06/19 08:47:33;;;;;;;16.80;15.60;;;23.60;57.60;;;;;;6309810;28;20269;-79
2023/06/19 08:50:36;;;;;;;17.07;15.50;;;23.60;58.10;;;;;;6290828;28;20275;-80
2023/06/19 08:53:46;;;;;;;17.07;15.80;;;23.60;58.40;;;;;;6291435;28;20248;-81
2023/06/19 08:56:49;;;;;;;14.43;13.63;;;23.70;57.90;;;;;;6298535;28;20238;-80
2023/06/19 08:59:52;;;;;;;17.87;16.37;;;23.80;58.00;;;;;;6306821;28;20309;-81
2023/06/19 09:03:02;;;;;;;18.37;16.77;;;23.90;58.10;;;;;;6311600;28;20221;-81
2023/06/19 09:06:17;;;;;;;16.83;15.33;;;24.00;57.50;;;;;;6310746;28;20268;-78
2023/06/19 09:09:21;;;;;;;16.83;15.47;;;24.00;57.50;;;;;;6308102;28;20249;-79
2023/06/19 09:12:24;;;;;;;15.83;14.60;;;24.10;57.40;;;;;;6307735;28;20238;-80
2023/06/19 09:15:31;;;;;;;15.70;14.50;;;24.20;57.30;;;;;;6311918;28;20279;-78
2023/06/19 09:18:46;;;;;;;15.80;14.80;;;24.20;56.80;;;;;;6300592;28;20225;-81
2023/06/19 09:21:49;;;;;;;16.23;15.03;;;24.30;56.80;;;;;;6295175;28;20229;-80
2023/06/19 09:24:53;;;;;;;18.47;16.77;;;24.40;56.70;;;;;;6308456;28;20234;-81
2023/06/19 09:27:56;;;;;;;16.03;14.87;;;24.40;56.50;;;;;;6307969;28;20222;-79
2023/06/19 09:31:01;;;;;;;15.63;14.53;;;24.40;56.90;;;;;;6303064;28;20238;-81
2023/06/19 09:34:06;;;;;;;16.73;15.37;;;24.40;56.80;;;;;;6294836;28;20225;-81
2023/06/19 09:37:10;;;;;;;19.87;16.83;;;24.40;56.80;;;;;;6298071;28;20299;-79
2023/06/19 09:40:14;;;;;;;15.50;14.50;;;24.40;57.30;;;;;;6299134;28;20258;-83
2023/06/19 09:43:21;;;;;;;16.20;14.50;;;24.40;57.10;;;;;;6300587;28;20222;-80
2023/06/19 09:46:30;;;;;;;16.97;15.53;;;24.40;57.40;;;;;;6296262;28;20301;-81
2023/06/19 09:49:36;;;;;;;19.20;17.27;;;24.50;57.60;;;;;;6279835;28;20595;-82
2023/06/19 09:52:43;;;;;;;16.03;14.80;;;24.60;57.10;;;;;;6277264;28;20234;-83
2023/06/19 09:55:46;;;;;;;17.47;16.00;;;24.70;57.10;;;;;;6291396;28;20246;-82
2023/06/19 09:58:52;;;;;;;18.27;16.77;;;24.90;57.10;;;;;;6281938;28;20233;-82
2023/06/19 10:01:55;;;;;;;15.20;14.30;;;25.00;56.60;;;;;;6277324;28;20347;-82
2023/06/19 10:04:59;;;;;;;15.30;14.23;;;25.00;56.60;;;;;;6287632;28;20290;-79
2023/06/19 10:08:04;;;;;;;16.50;15.40;;;25.20;57.20;;;;;;6275559;28;20245;-82
2023/06/19 10:11:08;;;;;;;18.13;16.73;;;25.30;57.30;;;;;;6283141;28;20237;-80
2023/06/19 10:14:11;;;;;;;16.97;15.77;;;25.40;56.20;;;;;;6278732;28;20242;-83
2023/06/19 10:17:18;;;;;;;16.10;14.90;;;25.40;56.20;;;;;;6289738;28;20233;-82
2023/06/19 10:20:32;;;;;;;16.97;15.63;;;25.60;56.40;;;;;;6288600;28;20298;-82
2023/06/19 10:23:37;;;;;;;17.60;15.87;;;25.70;56.10;;;;;;6287427;28;20237;-82
2023/06/19 10:26:40;;;;;;;17.10;15.83;;;25.80;55.60;;;;;;6283629;28;20238;-82
2023/06/19 10:29:44;;;;;;;16.93;15.80;;;25.90;54.90;;;;;;6273434;28;20649;-80
2023/06/19 10:33:00;;;;;;;15.40;14.30;;;26.00;55.10;;;;;;6283698;28;20257;-82
2023/06/19 10:36:15;;;;;;;17.97;16.40;;;26.00;55.50;;;;;;6262059;28;20920;-81
2023/06/19 10:39:18;;;;;;;16.57;15.47;;;26.00;55.00;;;;;;6283034;28;20324;-82
2023/06/19 10:42:21;;;;;;;17.00;15.80;;;26.00;55.80;;;;;;6286369;28;20241;-81
2023/06/19 10:45:28;;;;;;;18.13;17.00;;;25.90;56.20;;;;;;6291509;28;20238;-84
2023/06/19 10:48:31;;;;;;;17.53;16.23;;;25.80;57.40;;;;;;6275735;28;20252;-80
2023/06/19 10:51:37;;;;;;;16.97;15.77;;;25.70;57.10;;;;;;6268451;28;20245;-83
2023/06/19 10:54:40;;;;;;;17.97;16.47;;;25.50;57.20;;;;;;6282049;28;20282;-82
2023/06/19 10:57:46;;;;;;;16.87;15.67;;;25.50;57.50;;;;;;6271166;28;20612;-84
2023/06/19 11:00:49;;;;;;;17.00;15.70;;;25.60;57.10;;;;;;6282321;28;20240;-82
2023/06/19 11:03:52;;;;;;;16.77;15.53;;;25.70;57.20;;;;;;6275082;28;20242;-79
2023/06/19 11:06:57;;;;;;;16.73;15.33;;;26.00;56.20;;;;;;6272308;28;20237;-81
2023/06/19 11:10:01;;;;;;;17.17;15.87;;;26.20;55.70;;;;;;6277408;28;20222;-83
2023/06/19 11:13:04;;;;;;;16.90;15.30;;;26.40;54.70;;;;;;6284441;28;20770;-82
2023/06/19 11:16:07;;;;;;;16.07;14.77;;;26.50;54.50;;;;;;6283347;28;20702;-81
2023/06/19 11:19:14;;;;;;;15.53;14.27;;;26.60;54.30;;;;;;6276597;28;20320;-81
2023/06/19 11:22:18;;;;;;;14.40;13.33;;;26.70;54.00;;;;;;6284312;28;20249;-82
2023/06/19 11:25:22;;;;;;;15.40;14.03;;;26.70;53.20;;;;;;6296557;28;20239;-84
2023/06/19 11:28:29;;;;;;;14.00;13.17;;;26.70;53.90;;;;;;6285408;28;20229;-83
2023/06/19 11:31:34;;;;;;;15.57;14.47;;;26.80;54.10;;;;;;6281653;28;20242;-82
2023/06/19 11:34:38;;;;;;;16.43;15.33;;;26.70;53.00;;;;;;6271536;28;20242;-83
2023/06/19 11:37:44;;;;;;;13.67;12.77;;;26.70;53.20;;;;;;6289268;28;20241;-82
2023/06/19 11:40:47;;;;;;;15.50;14.60;;;26.80;53.30;;;;;;6268836;28;20238;-82
2023/06/19 11:43:51;;;;;;;14.80;13.90;;;26.90;53.00;;;;;;6287888;28;20662;-80
2023/06/19 11:46:58;;;;;;;15.53;14.07;;;27.00;54.00;;;;;;6280632;28;20651;-83
2023/06/19 11:50:05;;;;;;;15.70;14.60;;;27.10;52.60;;;;;;6279119;28;20532;-83
2023/06/19 11:53:10;;;;;;;13.40;12.50;;;27.20;52.00;;;;;;6261792;28;20240;-83
2023/06/19 11:56:13;;;;;;;13.23;12.00;;;27.40;51.00;;;;;;6273679;28;20238;-82
2023/06/19 11:59:16;;;;;;;13.23;12.30;;;27.50;51.10;;;;;;6282660;28;20229;-82
2023/06/19 12:02:19;;;;;;;12.60;11.70;;;27.70;51.20;;;;;;6270348;28;20621;-81
2023/06/19 12:05:23;;;;;;;13.13;12.03;;;28.10;50.20;;;;;;6273559;28;20226;-81
2023/06/19 12:08:28;;;;;;;14.23;13.17;;;28.30;49.50;;;;;;6264255;28;20242;-81
2023/06/19 12:11:31;;;;;;;14.40;12.93;;;28.40;49.50;;;;;;6268974;28;20238;-81
2023/06/19 12:14:34;;;;;;;12.67;11.77;;;28.50;49.00;;;;;;6275644;28;20241;-82
2023/06/19 12:17:37;;;;;;;13.53;12.13;;;28.80;49.40;;;;;;6281824;28;20241;-82
2023/06/19 12:20:41;;;;;;;12.60;11.80;;;28.90;48.20;;;;;;6290506;28;20656;-80
2023/06/19 12:23:46;;;;;;;12.57;11.50;;;28.90;48.00;;;;;;6271091;28;20303;-80
2023/06/19 12:26:49;;;;;;;12.23;11.27;;;28.70;48.50;;;;;;6269723;28;20253;-81
2023/06/19 12:29:52;;;;;;;11.27;10.57;;;28.90;48.60;;;;;;6270115;28;20329;-81
2023/06/19 12:32:56;;;;;;;12.93;11.77;;;29.00;48.40;;;;;;6276662;28;20999;-81
2023/06/19 12:35:59;;;;;;;12.77;11.45;;;29.20;48.00;;;;;;6268486;28;20234;-82
2023/06/19 12:39:06;;;;;;;11.82;10.88;;;29.20;46.90;;;;;;6287193;28;20253;-83
2023/06/19 12:42:11;;;;;;;10.70;10.00;;;29.20;47.60;;;;;;6270775;28;20229;-83
2023/06/19 12:45:14;;;;;;;11.63;10.82;;;29.30;47.10;;;;;;6276671;28;20851;-83
2023/06/19 12:48:18;;;;;;;12.38;11.48;;;29.30;46.50;;;;;;6270904;28;20242;-80
2023/06/19 12:51:21;;;;;;;11.95;11.15;;;29.10;46.90;;;;;;6272673;28;20236;-81
2023/06/19 12:54:26;;;;;;;11.85;11.07;;;29.10;46.90;;;;;;6294433;28;20239;-82
2023/06/19 12:57:29;;;;;;;12.73;11.93;;;29.10;47.10;;;;;;6278474;28;20317;-80
2023/06/19 13:00:32;;;;;;;12.43;11.63;;;29.00;47.20;;;;;;6284010;28;20237;-82
2023/06/19 13:03:35;;;;;;;12.25;11.20;;;29.00;47.50;;;;;;6283301;28;20268;-83
2023/06/19 13:06:38;;;;;;;18.05;13.52;;;29.20;47.30;;;;;;6272272;28;20248;-81
2023/06/19 13:09:43;;;;;;;13.30;11.98;;;29.10;47.40;;;;;;6285654;28;20246;-81
2023/06/19 13:12:46;;;;;;;12.57;11.57;;;29.40;47.50;;;;;;6269000;28;20254;-81
2023/06/19 13:15:49;;;;;;;11.95;11.18;;;29.60;46.70;;;;;;6272273;28;20328;-82
2023/06/19 13:18:53;;;;;;;11.60;10.90;;;29.70;46.30;;;;;;6284317;28;20260;-82
2023/06/19 13:21:56;;;;;;;11.85;11.00;;;29.70;46.30;;;;;;6283859;28;20905;-80
2023/06/19 13:25:00;;;;;;;12.80;11.52;;;29.80;45.80;;;;;;6276418;28;20717;-81
2023/06/19 13:28:04;;;;;;;11.02;10.40;;;29.70;45.10;;;;;;6284936;28;20404;-85
2023/06/19 13:31:07;;;;;;;11.23;10.45;;;29.90;45.20;;;;;;6272350;28;20242;-82
2023/06/19 13:34:10;;;;;;;11.98;11.27;;;30.00;45.50;;;;;;6273854;28;20252;-80
2023/06/19 13:37:13;;;;;;;12.27;11.35;;;30.00;45.30;;;;;;6270953;28;20225;-81
2023/06/19 13:40:18;;;;;;;13.13;11.88;;;30.20;46.00;;;;;;6276046;28;20734;-84
2023/06/19 13:43:23;;;;;;;17.17;12.85;;;30.30;46.20;;;;;;6267385;28;20272;-81
2023/06/19 13:46:26;;;;;;;13.93;12.82;;;30.40;46.30;;;;;;6273893;28;20248;-81
2023/06/19 13:49:29;;;;;;;20.65;13.93;;;30.10;46.00;;;;;;6276896;28;20249;-83
2023/06/19 13:52:32;;;;;;;14.27;13.00;;;30.20;45.90;;;;;;6277652;28;20344;-80
2023/06/19 13:55:37;;;;;;;12.80;11.77;;;30.20;45.50;;;;;;6274972;28;20799;-83
2023/06/19 13:58:40;;;;;;;13.98;12.98;;;30.20;46.00;;;;;;6283618;28;20360;-83
2023/06/19 14:01:43;;;;;;;13.38;12.38;;;30.10;46.30;;;;;;6274093;28;20291;-81
2023/06/19 14:04:46;;;;;;;12.57;11.68;;;30.00;46.10;;;;;;6275394;28;20250;-82
2023/06/19 14:07:49;;;;;;;14.60;13.55;;;29.90;46.40;;;;;;6284102;28;20240;-81
2023/06/19 14:10:54;;;;;;;13.25;12.43;;;29.60;47.10;;;;;;6279656;28;20245;-81
2023/06/19 14:13:57;;;;;;;13.13;12.23;;;29.70;46.80;;;;;;6281395;28;20234;-82
2023/06/19 14:17:00;;;;;;;12.30;11.50;;;29.60;46.50;;;;;;6278402;28;20241;-81
2023/06/19 14:20:05;;;;;;;13.90;13.10;;;29.60;46.80;;;;;;6283523;28;20229;-82
2023/06/19 14:23:08;;;;;;;13.25;12.45;;;29.50;46.30;;;;;;6279445;28;20249;-82
2023/06/19 14:26:13;;;;;;;14.93;13.93;;;29.50;46.70;;;;;;6274009;28;20948;-81
2023/06/19 14:29:18;;;;;;;14.52;13.32;;;29.40;47.20;;;;;;6266327;28;20294;-83
2023/06/19 14:32:22;;;;;;;13.15;12.25;;;29.50;47.20;;;;;;6265054;28;20841;-83
2023/06/19 14:35:25;;;;;;;13.02;12.18;;;29.70;46.70;;;;;;6257813;28;20235;-82
2023/06/19 14:38:33;;;;;;;13.20;12.20;;;29.90;47.00;;;;;;6277116;28;20741;-84
2023/06/19 14:41:37;;;;;;;13.45;12.10;;;30.00;47.30;;;;;;6264150;28;20254;-83
2023/06/19 14:44:41;;;;;;;13.00;12.00;;;30.10;47.00;;;;;;6278035;28;20237;-82
2023/06/19 14:47:44;;;;;;;13.45;12.52;;;30.10;46.90;;;;;;6268359;28;20235;-84
2023/06/19 14:50:48;;;;;;;13.15;12.23;;;30.10;46.90;;;;;;6280997;28;20237;-82
2023/06/19 14:53:51;;;;;;;13.38;12.55;;;30.10;46.50;;;;;;6265125;28;20600;-81
2023/06/19 14:56:55;;;;;;;13.50;12.50;;;30.10;47.50;;;;;;6257801;28;20238;-83
2023/06/19 14:59:59;;;;;;;12.95;11.90;;;29.90;46.80;;;;;;6287975;28;20295;-83
2023/06/19 15:03:02;;;;;;;13.20;12.15;;;30.00;46.20;;;;;;6268767;28;20230;-82
2023/06/19 15:06:05;;;;;;;13.85;12.68;;;30.20;46.50;;;;;;6275886;28;20249;-82
2023/06/19 15:09:08;;;;;;;12.93;12.13;;;30.30;46.80;;;;;;6270433;28;20320;-84
2023/06/19 15:12:13;;;;;;;14.02;12.90;;;30.30;46.10;;;;;;6265533;28;20319;-83
2023/06/19 15:15:16;;;;;;;13.82;12.85;;;30.10;45.90;;;;;;6266735;28;20226;-82
2023/06/19 15:18:19;;;;;;;13.93;12.82;;;30.00;46.30;;;;;;6262408;28;20250;-83
2023/06/19 15:21:23;;;;;;;12.98;12.00;;;30.00;46.50;;;;;;6262449;28;20273;-83
2023/06/19 15:24:26;;;;;;;12.93;12.13;;;29.80;46.20;;;;;;6266032;28;20230;-84
2023/06/19 15:27:31;;;;;;;13.65;12.43;;;29.80;46.50;;;;;;6245509;28;20234;-82
2023/06/19 15:30:35;;;;;;;15.05;13.75;;;29.90;46.80;;;;;;6267750;28;20241;-82
2023/06/19 15:33:38;;;;;;;13.20;12.30;;;29.90;46.90;;;;;;6260676;28;20313;-81